createdAt,value
2022-12-15T00:00:48.242Z,42.05
2022-12-15T00:03:47.869Z,30.77
2022-12-15T00:06:35.309Z,34.92
2022-12-15T00:09:27.656Z,45.80
2022-12-15T00:12:17.835Z,29.25
2022-12-15T00:15:04.547Z,34.97
2022-12-15T00:17:51.368Z,32.30
2022-12-15T00:20:38.706Z,28.75
2022-12-15T00:23:28.658Z,31.95
2022-12-15T00:26:15.722Z,38.85
2022-12-15T00:29:03.433Z,37.28
2022-12-15T00:31:49.854Z,37.42
2022-12-15T00:34:38.501Z,36.47
2022-12-15T00:37:25.131Z,34.13
2022-12-15T00:39:59.048Z,28.25
2022-12-15T00:42:29.121Z,40.35
2022-12-15T00:44:57.424Z,30.90
2022-12-15T00:47:26.351Z,39.60
2022-12-15T00:50:13.147Z,32.65
2022-12-15T00:53:00.326Z,37.42
2022-12-15T00:55:47.053Z,33.17
2022-12-15T00:58:33.755Z,32.85
2022-12-15T01:01:29.884Z,30.40
2022-12-15T01:04:16.580Z,32.85
2022-12-15T01:07:03.676Z,37.50
2022-12-15T01:09:50.044Z,35.63
2022-12-15T01:12:36.914Z,34.97
2022-12-15T01:15:24.045Z,29.67
2022-12-15T01:18:11.848Z,33.83
2022-12-15T01:20:39.917Z,36.08
2022-12-15T01:23:09.286Z,26.38
2022-12-15T01:25:39.851Z,29.80
2022-12-15T01:28:08.294Z,26.52
2022-12-15T01:30:36.225Z,32.03
2022-12-15T01:33:04.540Z,30.17
2022-12-15T01:35:32.494Z,24.92
2022-12-15T01:38:01.326Z,29.52
2022-12-15T01:40:47.272Z,23.33
2022-12-15T01:43:24.930Z,37.45
2022-12-15T01:45:57.576Z,34.25
2022-12-15T01:48:47.243Z,26.20
2022-12-15T01:51:31.232Z,30.08
2022-12-15T01:54:08.763Z,21.42
2022-12-15T01:56:43.807Z,54.47
2022-12-15T01:59:17.978Z,29.02
2022-12-15T02:04:22.213Z,34.72
2022-12-15T02:06:50.867Z,25.80
2022-12-15T02:09:21.095Z,28.48
2022-12-15T02:11:55.005Z,21.00
2022-12-15T02:14:51.725Z,25.67
2022-12-15T02:17:39.624Z,23.33
2022-12-15T02:20:15.041Z,22.17
2022-12-15T02:23:17.256Z,27.60
2022-12-15T02:25:56.519Z,23.55
2022-12-15T02:28:50.664Z,21.27
2022-12-15T02:34:42.508Z,20.50
2022-12-15T02:37:16.945Z,24.60
2022-12-15T02:39:45.394Z,20.55
2022-12-15T02:42:14.363Z,21.58
2022-12-15T02:44:51.677Z,27.30
2022-12-15T02:47:29.064Z,23.55
2022-12-15T02:50:21.013Z,27.17
2022-12-15T02:53:18.254Z,22.55
2022-12-15T02:56:05.935Z,24.55
2022-12-15T02:58:46.367Z,23.40
2022-12-15T03:01:41.272Z,24.60
2022-12-15T03:04:12.417Z,22.27
2022-12-15T03:06:40.315Z,30.23
2022-12-15T03:09:08.720Z,21.92
2022-12-15T03:11:37.492Z,22.13
2022-12-15T03:14:05.883Z,22.73
2022-12-15T03:16:33.958Z,21.95
2022-12-15T03:19:03.173Z,17.33
2022-12-15T03:21:31.573Z,15.75
2022-12-15T03:23:59.905Z,15.35
2022-12-15T03:26:27.864Z,15.07
2022-12-15T03:28:56.212Z,13.27
2022-12-15T03:31:24.431Z,19.98
2022-12-15T03:33:54.202Z,15.32
2022-12-15T03:36:25.673Z,16.27
2022-12-15T03:38:54.064Z,18.17
2022-12-15T03:41:22.103Z,19.25
2022-12-15T03:43:50.615Z,25.45
2022-12-15T03:46:18.644Z,25.15
2022-12-15T03:48:47.504Z,25.70
2022-12-15T03:51:15.583Z,24.88
2022-12-15T03:53:43.837Z,30.20
2022-12-15T03:56:11.833Z,32.17
2022-12-15T03:58:40.165Z,26.02
2022-12-15T04:01:27.845Z,25.00
2022-12-15T04:04:00.875Z,22.65
2022-12-15T04:06:30.863Z,29.20
2022-12-15T04:08:59.258Z,25.33
2022-12-15T04:11:27.387Z,26.88
2022-12-15T04:13:55.654Z,28.50
2022-12-15T04:16:23.683Z,37.05
2022-12-15T04:19:12.136Z,39.67
2022-12-15T04:21:40.193Z,55.85
2022-12-15T04:24:27.140Z,45.92
2022-12-15T04:27:13.848Z,47.92
2022-12-15T04:30:00.736Z,41.22
2022-12-15T04:32:50.068Z,54.72
2022-12-15T04:35:38.663Z,46.17
2022-12-15T04:38:25.390Z,54.80
2022-12-15T04:41:13.554Z,52.10
2022-12-15T04:44:00.268Z,45.92
2022-12-15T04:46:47.051Z,42.63
2022-12-15T04:49:33.509Z,50.17
2022-12-15T04:52:20.730Z,43.65
2022-12-15T04:55:07.288Z,33.30
2022-12-15T04:57:54.594Z,29.42
2022-12-15T05:00:41.439Z,36.05
2022-12-15T05:03:29.591Z,25.30
2022-12-15T05:06:17.262Z,34.20
2022-12-15T05:09:04.042Z,32.88
2022-12-15T05:11:50.840Z,35.30
2022-12-15T05:14:37.499Z,33.67
2022-12-15T05:17:24.355Z,38.45
2022-12-15T05:20:11.528Z,31.13
2022-12-15T05:22:58.040Z,44.60
2022-12-15T05:25:46.079Z,35.78
2022-12-15T05:28:32.750Z,33.35
2022-12-15T05:31:19.533Z,36.88
2022-12-15T05:33:47.791Z,40.03
2022-12-15T05:36:17.220Z,46.40
2022-12-15T05:38:47.780Z,41.15
2022-12-15T05:41:21.180Z,42.03
2022-12-15T05:43:49.402Z,40.20
2022-12-15T05:46:20.021Z,43.88
2022-12-15T05:48:48.302Z,40.95
2022-12-15T05:51:16.640Z,43.03
2022-12-15T05:53:44.771Z,40.97
2022-12-15T05:56:15.702Z,44.58
2022-12-15T05:58:45.585Z,48.63
2022-12-15T06:01:17.902Z,35.78
2022-12-15T06:03:46.175Z,45.28
2022-12-15T06:06:17.178Z,38.35
2022-12-15T06:08:45.433Z,38.92
2022-12-15T06:11:17.530Z,47.63
2022-12-15T06:13:47.409Z,37.15
2022-12-15T06:16:24.489Z,37.03
2022-12-15T06:18:58.030Z,46.08
2022-12-15T06:23:57.308Z,37.03
2022-12-15T06:26:40.749Z,40.70
2022-12-15T06:29:11.086Z,43.40
2022-12-15T06:31:40.998Z,35.85
2022-12-15T06:34:14.090Z,40.75
2022-12-15T06:36:42.789Z,42.25
2022-12-15T06:39:13.709Z,43.97
2022-12-15T06:41:44.107Z,46.75
2022-12-15T06:44:16.486Z,56.72
2022-12-15T06:46:46.816Z,50.20
2022-12-15T06:49:15.667Z,42.53
2022-12-15T06:51:45.248Z,40.33
2022-12-15T06:54:13.473Z,43.17
2022-12-15T06:56:42.648Z,44.05
2022-12-15T06:59:12.093Z,43.85
2022-12-15T07:01:42.053Z,44.83
2022-12-15T07:04:11.638Z,46.13
2022-12-15T07:06:40.664Z,45.70
2022-12-15T07:09:13.751Z,50.35
2022-12-15T07:11:42.147Z,46.65
2022-12-15T07:14:10.668Z,40.00
2022-12-15T07:16:39.406Z,45.08
2022-12-15T07:19:11.985Z,65.93
2022-12-15T07:21:41.657Z,43.03
2022-12-15T07:24:13.299Z,47.03
2022-12-15T07:26:42.835Z,43.25
2022-12-15T07:29:12.143Z,49.85
2022-12-15T07:31:41.842Z,44.65
2022-12-15T07:34:09.997Z,45.95
2022-12-15T07:36:38.928Z,50.78
2022-12-15T07:39:07.008Z,42.83
2022-12-15T07:41:35.879Z,47.35
2022-12-15T07:44:04.410Z,47.13
2022-12-15T07:46:34.235Z,47.13
2022-12-15T07:49:02.359Z,46.42
2022-12-15T07:51:30.772Z,41.10
2022-12-15T07:53:59.000Z,48.22
2022-12-15T07:56:28.877Z,47.08
2022-12-15T07:58:57.125Z,34.30
2022-12-15T08:01:25.663Z,51.08
2022-12-15T08:03:53.953Z,44.47
2022-12-15T08:06:22.900Z,37.70
2022-12-15T08:08:51.676Z,44.20
2022-12-15T08:11:23.346Z,41.45
2022-12-15T08:14:13.296Z,39.00
2022-12-15T08:16:40.378Z,41.92
2022-12-15T08:19:12.456Z,36.33
2022-12-15T08:21:42.286Z,33.90
2022-12-15T08:24:10.630Z,39.17
2022-12-15T08:26:41.328Z,42.13
2022-12-15T08:32:02.013Z,39.20
2022-12-15T08:34:30.442Z,40.50
2022-12-15T08:36:58.765Z,37.28
2022-12-15T08:39:26.874Z,35.45
2022-12-15T08:41:56.645Z,34.20
2022-12-15T08:44:24.685Z,36.15
2022-12-15T08:46:54.699Z,31.83
2022-12-15T08:49:22.794Z,37.13
2022-12-15T08:51:52.546Z,30.35
2022-12-15T08:54:21.796Z,36.15
2022-12-15T08:56:50.435Z,38.22
2022-12-15T08:59:19.685Z,34.13
2022-12-15T09:01:48.601Z,31.63
2022-12-15T09:04:17.751Z,35.58
2022-12-15T09:06:50.359Z,36.65
2022-12-15T09:09:19.358Z,36.80
2022-12-15T09:11:48.668Z,37.45
2022-12-15T09:14:21.587Z,33.20
2022-12-15T09:16:54.101Z,33.78
2022-12-15T09:19:22.438Z,36.88
2022-12-15T09:21:50.956Z,34.65
2022-12-15T09:24:28.692Z,38.05
2022-12-15T09:27:01.325Z,36.97
2022-12-15T09:29:29.497Z,35.40
2022-12-15T09:31:59.907Z,35.25
2022-12-15T09:34:28.317Z,29.77
2022-12-15T09:36:57.224Z,37.47
2022-12-15T09:39:25.399Z,31.88
2022-12-15T09:41:58.915Z,32.22
2022-12-15T09:44:29.895Z,36.58
2022-12-15T09:47:20.520Z,31.13
2022-12-15T09:49:49.176Z,41.35
2022-12-15T09:52:22.917Z,36.72
2022-12-15T09:54:51.674Z,43.72
2022-12-15T09:57:40.202Z,33.55
2022-12-15T10:00:22.767Z,30.17
2022-12-15T10:03:22.869Z,34.58
2022-12-15T10:06:16.573Z,35.45
2022-12-15T10:08:54.598Z,33.92
2022-12-15T10:12:02.792Z,35.40
2022-12-15T10:15:05.807Z,38.88
2022-12-15T10:17:57.086Z,29.10
2022-12-15T10:20:27.988Z,40.92
2022-12-15T10:23:12.848Z,39.78
2022-12-15T10:25:48.038Z,35.15
2022-12-15T10:28:38.260Z,27.50
2022-12-15T10:31:25.763Z,32.70
2022-12-15T10:34:02.076Z,30.95
2022-12-15T10:36:30.568Z,34.00
2022-12-15T10:38:58.697Z,35.80
2022-12-15T10:41:32.987Z,30.70
2022-12-15T10:46:32.622Z,33.33
2022-12-15T10:49:25.297Z,34.38
2022-12-15T10:51:57.669Z,44.20
2022-12-15T10:54:30.986Z,38.80
2022-12-15T10:57:03.219Z,30.27
2022-12-15T10:59:33.103Z,46.28
2022-12-15T11:02:34.758Z,51.35
2022-12-15T11:05:18.307Z,35.15
2022-12-15T11:07:55.146Z,33.38
2022-12-15T11:10:50.068Z,33.22
2022-12-15T11:13:22.796Z,34.50
2022-12-15T11:15:53.360Z,46.33
2022-12-15T11:18:43.367Z,44.15
2022-12-15T11:21:17.224Z,37.47
2022-12-15T11:23:57.358Z,30.60
2022-12-15T11:26:41.497Z,32.83
2022-12-15T11:29:24.354Z,38.42
2022-12-15T11:31:57.951Z,29.05
2022-12-15T11:34:46.010Z,32.80
2022-12-15T11:40:27.818Z,34.70
2022-12-15T11:43:17.546Z,33.22
2022-12-15T11:46:21.121Z,35.03
2022-12-15T11:48:58.717Z,36.47
2022-12-15T11:51:33.217Z,32.42
2022-12-15T11:54:19.948Z,31.85
2022-12-15T11:56:49.113Z,30.52
2022-12-15T11:59:43.857Z,31.67
2022-12-15T12:02:30.925Z,23.20
2022-12-15T12:05:47.100Z,23.77
2022-12-15T12:08:47.506Z,34.50
2022-12-15T12:11:26.938Z,22.13
2022-12-15T12:14:20.262Z,18.63
2022-12-15T12:17:09.386Z,28.20
2022-12-15T12:19:41.204Z,26.08
2022-12-15T12:22:24.709Z,18.58
2022-12-15T12:25:02.874Z,16.25
2022-12-15T12:27:40.903Z,16.83
2022-12-15T12:30:16.499Z,20.15
2022-12-15T12:32:44.705Z,17.60
2022-12-15T12:35:38.934Z,21.50
2022-12-15T12:38:13.972Z,14.27
2022-12-15T12:41:10.496Z,20.08
2022-12-15T12:43:51.843Z,20.45
2022-12-15T12:46:34.711Z,15.70
2022-12-15T12:49:26.878Z,14.82
2022-12-15T12:51:59.692Z,15.45
2022-12-15T12:55:11.134Z,22.10
2022-12-15T12:57:45.492Z,20.30
2022-12-15T13:00:25.169Z,16.63
2022-12-15T13:02:55.504Z,18.65
2022-12-15T13:05:35.786Z,17.10
2022-12-15T13:08:05.311Z,14.88
2022-12-15T13:10:36.544Z,19.30
2022-12-15T13:13:36.756Z,13.45
2022-12-15T13:16:27.143Z,12.07
2022-12-15T13:19:02.339Z,16.83
2022-12-15T13:21:45.192Z,15.90
2022-12-15T13:24:25.021Z,16.33
2022-12-15T13:26:53.233Z,19.05
2022-12-15T13:29:23.982Z,26.10
2022-12-15T13:31:53.495Z,30.75
2022-12-15T13:34:24.872Z,35.20
2022-12-15T13:39:56.083Z,31.83
2022-12-15T13:42:45.426Z,32.58
2022-12-15T13:45:33.297Z,35.33
2022-12-15T13:48:01.784Z,36.20
2022-12-15T13:50:58.019Z,28.05
2022-12-15T13:53:28.104Z,36.67
2022-12-15T13:56:11.616Z,36.85
2022-12-15T13:58:54.222Z,35.40
2022-12-15T14:01:31.790Z,41.28
2022-12-15T14:04:06.452Z,35.75
2022-12-15T14:06:44.571Z,35.05
2022-12-15T14:09:16.998Z,36.97
2022-12-15T14:11:55.012Z,42.00
2022-12-15T14:14:28.570Z,49.15
2022-12-15T14:19:44.140Z,45.45
2022-12-15T14:22:30.517Z,91.47
2022-12-15T14:25:13.487Z,46.60
2022-12-15T14:27:42.291Z,43.60
2022-12-15T14:30:23.347Z,40.60
2022-12-15T14:33:07.155Z,41.45
2022-12-15T14:35:49.597Z,42.08
2022-12-15T14:38:24.520Z,45.45
2022-12-15T14:40:56.847Z,36.00
2022-12-15T14:43:34.319Z,36.05
2022-12-15T14:46:15.284Z,37.00
2022-12-15T14:48:56.929Z,60.05
2022-12-15T14:51:28.832Z,61.60
2022-12-15T14:53:57.456Z,48.40
2022-12-15T14:56:31.365Z,54.40
2022-12-15T14:59:06.213Z,41.10
2022-12-15T15:01:42.238Z,40.65
2022-12-15T15:03:13.113Z,31.73
2022-12-15T15:04:31.693Z,46.40
2022-12-15T15:07:02.552Z,26.80
2022-12-15T15:09:38.752Z,38.78
2022-12-15T15:12:17.946Z,32.25
2022-12-15T15:14:53.727Z,35.60
2022-12-15T15:17:25.167Z,32.97
2022-12-15T15:20:03.077Z,35.03
2022-12-15T15:22:46.011Z,29.13
2022-12-15T15:25:39.987Z,32.73
2022-12-15T15:30:59.561Z,30.70
2022-12-15T15:33:28.352Z,29.75
2022-12-15T15:35:59.403Z,35.63
2022-12-15T15:38:41.825Z,24.52
2022-12-15T15:41:29.983Z,28.95
2022-12-15T15:44:00.888Z,31.63
2022-12-15T15:46:33.584Z,27.95
2022-12-15T15:49:08.838Z,26.90
2022-12-15T15:51:38.633Z,27.83
2022-12-15T15:54:12.813Z,28.85
2022-12-15T15:56:42.018Z,28.77
2022-12-15T15:59:16.880Z,28.02
2022-12-15T16:01:52.946Z,32.90
2022-12-15T16:04:21.160Z,36.80
2022-12-15T16:06:51.272Z,34.83
2022-12-15T16:09:19.548Z,28.42
2022-12-15T16:11:48.273Z,33.42
2022-12-15T16:14:18.295Z,30.63
2022-12-15T16:16:47.005Z,44.17
2022-12-15T16:19:15.183Z,124.43
2022-12-15T16:21:43.969Z,30.65
2022-12-15T16:24:18.055Z,32.35
2022-12-15T16:26:51.185Z,28.75
2022-12-15T16:29:21.590Z,30.95
2022-12-15T16:31:51.437Z,34.38
2022-12-15T16:39:04.235Z,35.25
2022-12-15T16:41:33.428Z,30.48
2022-12-15T16:44:01.511Z,34.72
2022-12-15T16:46:31.370Z,29.40
2022-12-15T16:48:59.695Z,41.50
2022-12-15T16:56:09.784Z,38.60
2022-12-15T16:58:38.287Z,35.90
2022-12-15T17:01:06.219Z,32.83
2022-12-15T17:03:34.543Z,38.22
2022-12-15T17:06:06.634Z,33.10
2022-12-15T17:08:45.263Z,29.88
2022-12-15T17:11:21.475Z,32.92
2022-12-15T17:13:52.314Z,33.03
2022-12-15T17:16:22.951Z,34.28
2022-12-15T17:18:51.783Z,25.00
2022-12-15T17:21:24.055Z,32.85
2022-12-15T17:23:57.137Z,23.95
2022-12-15T17:26:29.907Z,26.70
2022-12-15T17:29:08.271Z,28.98
2022-12-15T17:31:36.538Z,32.40
2022-12-15T17:34:32.304Z,22.45
2022-12-15T17:37:03.595Z,31.48
2022-12-15T17:39:34.878Z,22.55
2022-12-15T17:42:03.563Z,25.25
2022-12-15T17:44:38.185Z,24.80
2022-12-15T17:47:08.545Z,16.20
2022-12-15T17:49:38.290Z,21.55
2022-12-15T17:52:28.807Z,19.40
2022-12-15T17:54:57.672Z,19.83
2022-12-15T17:57:25.802Z,18.90
2022-12-15T17:59:54.188Z,24.40
2022-12-15T18:02:22.288Z,24.92
2022-12-15T18:05:05.390Z,25.15
2022-12-15T18:07:33.596Z,24.92
2022-12-15T18:10:01.961Z,57.72
2022-12-15T18:12:30.211Z,69.40
2022-12-15T18:14:58.824Z,14.80
2022-12-15T18:17:28.727Z,14.57
2022-12-15T18:19:56.624Z,16.55
2022-12-15T18:22:24.876Z,17.73
2022-12-15T18:24:54.377Z,23.45
2022-12-15T18:27:28.163Z,16.65
2022-12-15T18:29:59.452Z,21.80
2022-12-15T18:32:30.169Z,15.38
2022-12-15T18:34:58.655Z,35.05
2022-12-15T18:37:30.260Z,19.02
2022-12-15T18:40:04.230Z,23.17
2022-12-15T18:42:33.295Z,29.65
2022-12-15T18:45:02.675Z,26.60
2022-12-15T18:47:32.031Z,28.38
2022-12-15T18:49:59.833Z,21.83
2022-12-15T18:52:34.461Z,20.75
2022-12-15T18:55:02.977Z,27.17
2022-12-15T18:57:34.071Z,42.63
2022-12-15T19:00:26.316Z,78.68
2022-12-15T19:02:57.295Z,27.35
2022-12-15T19:05:28.982Z,24.73
2022-12-15T19:08:27.675Z,25.08
2022-12-15T19:10:58.205Z,30.95
2022-12-15T19:13:31.749Z,23.05
2022-12-15T19:18:47.762Z,19.17
2022-12-15T19:21:40.443Z,19.27
2022-12-15T19:24:19.911Z,18.90
2022-12-15T19:26:49.592Z,25.48
2022-12-15T19:29:21.520Z,18.70
2022-12-15T19:31:49.922Z,18.05
2022-12-15T19:34:18.916Z,17.58
2022-12-15T19:36:47.288Z,17.50
2022-12-15T19:39:23.515Z,18.13
2022-12-15T19:41:51.619Z,15.15
2022-12-15T19:44:20.219Z,18.45
2022-12-15T19:46:48.170Z,15.85
2022-12-15T19:49:17.643Z,18.60
2022-12-15T19:51:46.065Z,17.52
2022-12-15T19:54:19.587Z,20.95
2022-12-15T19:56:48.130Z,17.92
2022-12-15T19:59:34.566Z,16.70
2022-12-15T20:02:02.726Z,18.52
2022-12-15T20:04:32.415Z,15.35
2022-12-15T20:07:04.415Z,15.55
2022-12-15T20:09:33.656Z,12.68
2022-12-15T20:12:01.495Z,15.65
2022-12-15T20:14:29.678Z,13.38
2022-12-15T20:16:58.484Z,11.65
2022-12-15T20:19:29.259Z,12.30
2022-12-15T20:21:57.125Z,11.90
2022-12-15T20:24:26.038Z,16.45
2022-12-15T20:26:54.056Z,19.08
2022-12-15T20:29:28.460Z,15.77
2022-12-15T20:31:58.023Z,15.45
2022-12-15T20:34:26.305Z,16.60
2022-12-15T20:36:54.214Z,12.68
2022-12-15T20:39:27.975Z,12.35
2022-12-15T20:41:57.170Z,15.48
2022-12-15T20:44:25.676Z,12.43
2022-12-15T20:46:54.677Z,10.60
2022-12-15T20:49:24.430Z,14.20
2022-12-15T20:51:52.725Z,9.90
2022-12-15T20:54:22.842Z,9.23
2022-12-15T20:56:51.353Z,9.75
2022-12-15T20:59:21.518Z,9.27
2022-12-15T21:01:50.718Z,11.43
2022-12-15T21:04:26.920Z,13.65
2022-12-15T21:06:57.010Z,11.68
2022-12-15T21:09:25.967Z,9.93
2022-12-15T21:11:55.391Z,9.88
2022-12-15T21:14:24.697Z,11.55
2022-12-15T21:16:52.904Z,12.23
2022-12-15T21:19:22.651Z,9.82
2022-12-15T21:24:42.659Z,10.60
2022-12-15T21:27:14.888Z,7.28
2022-12-15T21:29:47.358Z,8.25
2022-12-15T21:32:18.463Z,9.57
2022-12-15T21:34:46.895Z,7.28
2022-12-15T21:37:30.549Z,6.68
2022-12-15T21:40:00.458Z,6.43
2022-12-15T21:42:28.668Z,9.82
2022-12-15T21:44:58.608Z,8.93
2022-12-15T21:47:52.339Z,7.40
2022-12-15T21:50:23.308Z,7.20
2022-12-15T21:52:51.594Z,7.70
2022-12-15T21:55:23.780Z,7.20
2022-12-15T21:57:51.811Z,6.80
2022-12-15T22:00:21.422Z,6.00
2022-12-15T22:02:51.969Z,8.02
2022-12-15T22:05:24.633Z,4.75
2022-12-15T22:07:52.688Z,8.75
2022-12-15T22:10:21.128Z,5.75
2022-12-15T22:12:59.317Z,8.15
2022-12-15T22:15:29.409Z,7.93
2022-12-15T22:17:57.437Z,4.97
2022-12-15T22:20:26.047Z,7.65
2022-12-15T22:22:53.970Z,4.47
2022-12-15T22:25:26.174Z,7.00
2022-12-15T22:27:54.768Z,5.85
2022-12-15T22:30:26.337Z,8.48
2022-12-15T22:32:54.629Z,8.10
2022-12-15T22:35:26.192Z,6.75
2022-12-15T22:37:55.241Z,8.95
2022-12-15T22:40:24.478Z,8.52
2022-12-15T22:42:58.378Z,10.15
2022-12-15T22:45:27.746Z,8.27
2022-12-15T22:47:55.660Z,9.38
2022-12-15T22:50:26.314Z,6.68
2022-12-15T22:52:55.102Z,8.20
2022-12-15T22:55:24.737Z,6.07
2022-12-15T22:58:07.212Z,7.97
2022-12-15T23:00:36.151Z,6.50
2022-12-15T23:03:07.949Z,8.73
2022-12-15T23:05:42.101Z,11.82
2022-12-15T23:08:10.125Z,11.85
2022-12-15T23:10:56.817Z,11.32
2022-12-15T23:13:24.730Z,11.43
2022-12-15T23:16:11.845Z,7.50
2022-12-15T23:18:39.787Z,8.55
2022-12-15T23:21:09.707Z,12.93
2022-12-15T23:23:37.898Z,11.88
2022-12-15T23:26:06.496Z,13.18
2022-12-15T23:28:34.528Z,8.38
2022-12-15T23:31:03.385Z,8.25
2022-12-15T23:33:31.728Z,8.40
2022-12-15T23:36:01.477Z,8.15
2022-12-15T23:38:29.915Z,6.03
2022-12-15T23:40:59.897Z,5.18
2022-12-15T23:43:30.937Z,5.82
2022-12-15T23:46:05.717Z,3.85
2022-12-15T23:48:38.836Z,5.70
2022-12-15T23:51:12.066Z,4.07
2022-12-15T23:53:41.184Z,8.05
2022-12-15T23:56:14.111Z,4.82
2022-12-15T23:58:46.695Z,6.00
